MSC Clorinda — 3FDW7 — position and weather

sailwx.info

Track history (hours):
 
Tides and Currents Weather Stations Pressure Air Temp Water Temp Dewpoint Dewpoint Depression Visibility Wind Speed Wind Dir Waves Ship Positions

MSC Clorinda

Last reported at 2017-Jul-21 16:23 UTC. Time now 2017-Jul-23 06:28 UTC.
Position N 01°14' E 104°02'.

Length 366 m; draft 13.4 m.

Type: Ship (hazmat cat A). MMSI: 373233000.

Date/timePositionNaut miles runAvg speedWind from/ knotsBaromVisibWave heightAir tempDewpointWater temp
2017-Jul-21 16:23N 01°14' E 104°02'617.1
2017-Jul-21 16:00N 01°13' E 103°55'611.4
2017-Jul-21 15:31N 01°11' E 103°50'4 7.3
2017-Jul-21 15:01N 01°13' E 103°48'4 8.4
2017-Jul-21 14:30N 01°16' E 103°45'0 0.6
2017-Jul-21 14:00N 01°17' E 103°45'0 0.0
2017-Jul-21 13:27N 01°17' E 103°45'0 0.0
2017-Jul-21 13:00N 01°17' E 103°45'0 0.0
2017-Jul-21 12:30N 01°17' E 103°45'0 0.0
2017-Jul-21 12:00N 01°17' E 103°45'0 0.0
2017-Jul-21 11:27N 01°17' E 103°45'0 0.0
2017-Jul-21 11:00N 01°17' E 103°45'0 0.0
2017-Jul-21 10:30N 01°17' E 103°45'0 0.0
2017-Jul-21 10:00N 01°17' E 103°45'0 0.0
2017-Jul-21 09:30N 01°17' E 103°45'0 0.0
2017-Jul-21 09:00N 01°17' E 103°45'0 0.0
2017-Jul-21 08:24N 01°17' E 103°45'0 0.0
2017-Jul-21 08:00N 01°17' E 103°45'0 0.1
2017-Jul-21 07:30N 01°17' E 103°45'0 0.1
2017-Jul-21 07:00N 01°17' E 103°45'0 0.0
2017-Jul-21 06:30N 01°17' E 103°45'0 0.0
2017-Jul-21 06:00N 01°17' E 103°45'0 0.0
2017-Jul-21 05:27N 01°17' E 103°45'0 0.0
2017-Jul-21 05:00N 01°17' E 103°45'0 0.0
2017-Jul-21 04:30N 01°17' E 103°45'0 0.1
2017-Jul-21 04:00N 01°17' E 103°45'0 0.1
2017-Jul-21 03:30N 01°17' E 103°45'0 0.0
2017-Jul-21 03:00N 01°17' E 103°45'0 0.0
2017-Jul-21 02:30N 01°17' E 103°45'0 0.0
2017-Jul-21 01:57N 01°17' E 103°45'0 0.0
2017-Jul-21 01:27N 01°17' E 103°45'0 0.0
2017-Jul-21 00:57N 01°17' E 103°45'0 0.0
2017-Jul-21 00:30N 01°17' E 103°45'0 0.0
2017-Jul-20 23:57N 01°17' E 103°45'0 0.0
2017-Jul-20 23:30N 01°17' E 103°45'0 0.0
2017-Jul-20 23:00N 01°17' E 103°45'0 0.0
2017-Jul-20 22:30N 01°17' E 103°45'0 0.0
2017-Jul-20 22:00N 01°17' E 103°45'0 0.0
2017-Jul-20 21:30N 01°17' E 103°45'0 0.0
2017-Jul-20 21:00N 01°17' E 103°45'0 0.0
2017-Jul-20 20:30N 01°17' E 103°45'0 0.0
2017-Jul-20 20:00N 01°17' E 103°45'0 0.0
2017-Jul-20 19:30N 01°17' E 103°45'0 0.0
2017-Jul-20 19:00N 01°17' E 103°45'0 0.0
2017-Jul-20 18:30N 01°17' E 103°45'0 0.0
2017-Jul-20 18:00N 01°17' E 103°45'0 0.1
2017-Jul-20 17:30N 01°17' E 103°45'0 0.0
2017-Jul-20 17:00N 01°17' E 103°45'0 0.1
2017-Jul-20 16:30N 01°17' E 103°45'0 0.0
2017-Jul-20 16:00N 01°17' E 103°45'0 0.0
2017-Jul-20 15:30N 01°17' E 103°45'0 0.0
2017-Jul-20 15:00N 01°17' E 103°45'2 1.9
2017-Jul-20 14:01N 01°15' E 103°46'4 8.9
2017-Jul-20 13:31N 01°13' E 103°42'611.2
2017-Jul-20 13:00N 01°12' E 103°36'5 9.3
2017-Jul-20 12:30N 01°11' E 103°32'1 2.0
2017-Jul-20 12:00N 01°11' E 103°31'1 1.1
2017-Jul-20 11:30N 01°10' E 103°30'3 6.6
2017-Jul-20 11:00N 01°11' E 103°27'4 7.4
2017-Jul-20 10:30N 01°13' E 103°24'4 7.5
2017-Jul-20 10:00N 01°15' E 103°21'4 8.8
2017-Jul-20 09:31N 01°18' E 103°18'  
Track history (hours):
 
Tides and Currents Weather Stations Pressure Air Temp Water Temp Dewpoint Dewpoint Depression Visibility Wind Speed Wind Dir Waves Ship Positions

MSC Clorinda

Last reported at 2017-Jul-21 16:23 UTC. Time now 2017-Jul-23 06:28 UTC.
Position N 01°14' E 104°02'.

Length 366 m; draft 13.4 m.

Type: Ship (hazmat cat A). MMSI: 373233000.

Date/timePositionNaut miles runAvg speedWind from/ knotsBaromVisibWave heightAir tempDewpointWater temp
2017-Jul-21 16:23N 01°14' E 104°02'617.1
2017-Jul-21 16:00N 01°13' E 103°55'611.4
2017-Jul-21 15:31N 01°11' E 103°50'4 7.3
2017-Jul-21 15:01N 01°13' E 103°48'4 8.4
2017-Jul-21 14:30N 01°16' E 103°45'0 0.6
2017-Jul-21 14:00N 01°17' E 103°45'0 0.0
2017-Jul-21 13:27N 01°17' E 103°45'0 0.0
2017-Jul-21 13:00N 01°17' E 103°45'0 0.0
2017-Jul-21 12:30N 01°17' E 103°45'0 0.0
2017-Jul-21 12:00N 01°17' E 103°45'0 0.0
2017-Jul-21 11:27N 01°17' E 103°45'0 0.0
2017-Jul-21 11:00N 01°17' E 103°45'0 0.0
2017-Jul-21 10:30N 01°17' E 103°45'0 0.0
2017-Jul-21 10:00N 01°17' E 103°45'0 0.0
2017-Jul-21 09:30N 01°17' E 103°45'0 0.0
2017-Jul-21 09:00N 01°17' E 103°45'0 0.0
2017-Jul-21 08:24N 01°17' E 103°45'0 0.0
2017-Jul-21 08:00N 01°17' E 103°45'0 0.1
2017-Jul-21 07:30N 01°17' E 103°45'0 0.1
2017-Jul-21 07:00N 01°17' E 103°45'0 0.0
2017-Jul-21 06:30N 01°17' E 103°45'0 0.0
2017-Jul-21 06:00N 01°17' E 103°45'0 0.0
2017-Jul-21 05:27N 01°17' E 103°45'0 0.0
2017-Jul-21 05:00N 01°17' E 103°45'0 0.0
2017-Jul-21 04:30N 01°17' E 103°45'0 0.1
2017-Jul-21 04:00N 01°17' E 103°45'0 0.1
2017-Jul-21 03:30N 01°17' E 103°45'0 0.0
2017-Jul-21 03:00N 01°17' E 103°45'0 0.0
2017-Jul-21 02:30N 01°17' E 103°45'0 0.0
2017-Jul-21 01:57N 01°17' E 103°45'0 0.0
2017-Jul-21 01:27N 01°17' E 103°45'0 0.0
2017-Jul-21 00:57N 01°17' E 103°45'0 0.0
2017-Jul-21 00:30N 01°17' E 103°45'0 0.0
2017-Jul-20 23:57N 01°17' E 103°45'0 0.0
2017-Jul-20 23:30N 01°17' E 103°45'0 0.0
2017-Jul-20 23:00N 01°17' E 103°45'0 0.0
2017-Jul-20 22:30N 01°17' E 103°45'0 0.0
2017-Jul-20 22:00N 01°17' E 103°45'0 0.0
2017-Jul-20 21:30N 01°17' E 103°45'0 0.0
2017-Jul-20 21:00N 01°17' E 103°45'0 0.0
2017-Jul-20 20:30N 01°17' E 103°45'0 0.0
2017-Jul-20 20:00N 01°17' E 103°45'0 0.0
2017-Jul-20 19:30N 01°17' E 103°45'0 0.0
2017-Jul-20 19:00N 01°17' E 103°45'0 0.0
2017-Jul-20 18:30N 01°17' E 103°45'0 0.0
2017-Jul-20 18:00N 01°17' E 103°45'0 0.1
2017-Jul-20 17:30N 01°17' E 103°45'0 0.0
2017-Jul-20 17:00N 01°17' E 103°45'0 0.1
2017-Jul-20 16:30N 01°17' E 103°45'0 0.0
2017-Jul-20 16:00N 01°17' E 103°45'0 0.0
2017-Jul-20 15:30N 01°17' E 103°45'0 0.0
2017-Jul-20 15:00N 01°17' E 103°45'2 1.9
2017-Jul-20 14:01N 01°15' E 103°46'4 8.9
2017-Jul-20 13:31N 01°13' E 103°42'611.2
2017-Jul-20 13:00N 01°12' E 103°36'5 9.3
2017-Jul-20 12:30N 01°11' E 103°32'1 2.0
2017-Jul-20 12:00N 01°11' E 103°31'1 1.1
2017-Jul-20 11:30N 01°10' E 103°30'3 6.6
2017-Jul-20 11:00N 01°11' E 103°27'4 7.4
2017-Jul-20 10:30N 01°13' E 103°24'4 7.5
2017-Jul-20 10:00N 01°15' E 103°21'4 8.8
2017-Jul-20 09:31N 01°18' E 103°18'  

Dump ship's entire track history